This is the latest recevied weather packets stored in our database for station/object NW1E. If no packets are shown the sender has not sent any weather packets the latest 10 day(s).
| Time | Temp. | Humidity | Pressure | Rain* | Wind** | Luminosity | Snow |
|---|---|---|---|---|---|---|---|
| 1777493125 | 30.56° C | 56% | 1013.2 hPa | 0 mm | - | 596 W/m² | - |
| 1777489693 | 32.22° C | 50% | 1014.1 hPa | 0 mm | - | 902 W/m² | - |
| 1777486317 | 32.78° C | 50% | 1015.1 hPa | 0 mm | - | 953 W/m² | - |
| 1777481991 | 32.22° C | 51% | 1016.3 hPa | 0 mm | - | 1029 W/m² | - |
| 1777481394 | 32.78° C | 52% | 1016.4 hPa | 0 mm | - | 1022 W/m² | - |
| 1777481276 | 32.22° C | 53% | 1016.4 hPa | 0 mm | - | 972 W/m² | - |
| 1777478376 | 31.11° C | 54% | 1017 hPa | 0 mm | - | 874 W/m² | - |
| 1777477662 | 30.56° C | 57% | 1017.2 hPa | 0 mm | - | 823 W/m² | - |
| 1777476872 | 30° C | 56% | 1017.2 hPa | 0 mm | - | 827 W/m² | - |
| 1777476573 | 29.44° C | 56% | 1017.2 hPa | 0 mm | - | 818 W/m² | - |
| 1777475362 | 28.89° C | 58% | 1017.5 hPa | 0 mm | - | 777 W/m² | - |
| 1777473255 | 27.78° C | 64% | 1017.5 hPa | 0 mm | - | 686 W/m² | - |
| 1777471152 | 26.67° C | 69% | 1017.2 hPa | 0 mm | - | 610 W/m² | - |
| 1777469646 | 25.56° C | 76% | 1017 hPa | 0 mm | - | 347 W/m² | - |
| 1777467844 | 25.56° C | 81% | 1017 hPa | 0 mm | - | 436 W/m² | - |
| 1777466043 | 22.78° C | 90% | 1016.7 hPa | 0 mm | - | 317 W/m² | - |
| 1777465745 | 22.22° C | 91% | 1016.7 hPa | 0 mm | - | 86 W/m² | - |
| 1777464540 | 20.56° C | 93% | 1016.4 hPa | 0 mm | - | 139 W/m² | - |
| 1777460884 | 18.89° C | 93% | 1015.9 hPa | 0 mm | - | 9 W/m² | - |
| 1777459893 | 18.89° C | 92% | 1015.9 hPa | 0 mm | - | 0 W/m² | - |
| 1777457311 | 18.89° C | 92% | 1015.9 hPa | 0 mm | - | 0 W/m² | - |
| 1777457188 | 19.44° C | 93% | 1015.8 hPa | 0 mm | - | 0 W/m² | - |
| 1777456114 | 18.89° C | 92% | 1015.5 hPa | 0 mm | - | 0 W/m² | - |
| 1777455201 | 18.89° C | 92% | 1015.4 hPa | 0 mm | - | 0 W/m² | - |
| 1777454902 | 18.89° C | 91% | 1015.2 hPa | 0 mm | - | 0 W/m² | - |
* Rain latest hour (hover to see other rain measurements)
** Current wind speed in m/s (hover to see current wind gust speed)